createdAt,value
2019-03-31T00:01:20.909Z,99.90
2019-03-31T00:03:47.874Z,99.90
2019-03-31T00:06:14.842Z,99.90
2019-03-31T00:08:43.128Z,99.90
2019-03-31T00:11:09.992Z,99.90
2019-03-31T00:13:55.615Z,99.90
2019-03-31T00:16:22.343Z,99.90
2019-03-31T00:18:59.442Z,99.90
2019-03-31T00:21:36.842Z,99.90
2019-03-31T00:23:55.283Z,99.90
2019-03-31T00:26:22.182Z,99.90
2019-03-31T00:28:49.150Z,99.90
2019-03-31T00:31:22.073Z,99.90
2019-03-31T00:33:44.353Z,99.90
2019-03-31T00:36:11.535Z,99.90
2019-03-31T00:38:38.839Z,99.90
2019-03-31T00:41:05.781Z,99.90
2019-03-31T00:43:34.896Z,99.90
2019-03-31T00:46:01.747Z,99.90
2019-03-31T00:48:29.124Z,99.90
2019-03-31T00:50:55.958Z,99.90
2019-03-31T00:53:22.789Z,99.90
2019-03-31T00:55:49.635Z,99.90
2019-03-31T00:58:16.523Z,99.90
2019-03-31T01:01:09.936Z,99.90
2019-03-31T01:03:36.657Z,99.90
2019-03-31T01:06:03.938Z,99.90
2019-03-31T01:08:34.611Z,99.90
2019-03-31T01:11:04.370Z,99.90
2019-03-31T01:13:31.401Z,99.90
2019-03-31T01:16:00.152Z,99.90
2019-03-31T01:18:27.163Z,99.90
2019-03-31T01:20:53.925Z,99.90
2019-03-31T01:23:20.987Z,99.90
2019-03-31T01:25:51.050Z,99.90
2019-03-31T01:28:18.349Z,99.90
2019-03-31T01:30:57.347Z,99.90
2019-03-31T01:33:24.240Z,99.90
2019-03-31T01:35:51.127Z,99.90
2019-03-31T01:38:18.162Z,99.90
2019-03-31T01:40:45.230Z,99.90
2019-03-31T01:43:12.354Z,99.90
2019-03-31T01:45:39.151Z,99.90
2019-03-31T01:48:06.580Z,99.90
2019-03-31T01:50:33.493Z,99.90
2019-03-31T01:53:00.137Z,99.90
2019-03-31T01:55:35.765Z,99.90
2019-03-31T01:58:09.232Z,99.90
2019-03-31T02:00:53.012Z,99.90
2019-03-31T02:03:20.173Z,99.90
2019-03-31T02:05:46.887Z,99.90
2019-03-31T02:08:14.259Z,99.90
2019-03-31T02:10:41.050Z,99.90
2019-03-31T02:13:07.937Z,99.90
2019-03-31T02:15:34.686Z,99.90
2019-03-31T02:18:01.452Z,99.90
2019-03-31T02:20:28.138Z,99.90
2019-03-31T02:22:54.861Z,99.90
2019-03-31T02:25:21.949Z,99.90
2019-03-31T02:27:48.635Z,99.90
2019-03-31T02:30:16.192Z,99.90
2019-03-31T02:32:43.093Z,99.90
2019-03-31T02:35:16.906Z,99.90
2019-03-31T02:38:01.474Z,99.90
2019-03-31T02:40:28.146Z,99.90
2019-03-31T02:43:22.942Z,99.90
2019-03-31T02:45:50.072Z,99.90
2019-03-31T02:48:17.099Z,99.90
2019-03-31T02:50:53.141Z,99.90
2019-03-31T02:53:21.264Z,99.90
2019-03-31T02:55:48.156Z,99.90
2019-03-31T02:58:16.422Z,99.90
2019-03-31T03:00:54.520Z,99.90
2019-03-31T03:03:22.662Z,99.90
2019-03-31T03:05:51.654Z,99.90
2019-03-31T03:08:23.226Z,99.90
2019-03-31T03:10:57.665Z,99.90
2019-03-31T03:13:28.299Z,99.90
2019-03-31T03:16:23.009Z,99.90
2019-03-31T03:18:52.977Z,99.90
2019-03-31T03:21:23.729Z,99.90
2019-03-31T03:23:49.340Z,99.90
2019-03-31T03:26:16.075Z,99.90
2019-03-31T03:28:42.845Z,99.90
2019-03-31T03:31:15.090Z,99.90
2019-03-31T03:33:38.292Z,99.90
2019-03-31T03:36:05.014Z,99.90
2019-03-31T03:38:31.821Z,99.90
2019-03-31T03:40:58.470Z,99.90
2019-03-31T03:43:25.130Z,99.90
2019-03-31T03:45:51.809Z,99.90
2019-03-31T03:48:18.451Z,99.90
2019-03-31T03:51:01.548Z,99.90
2019-03-31T03:53:28.215Z,99.90
2019-03-31T03:55:54.856Z,99.90
2019-03-31T03:58:21.795Z,99.90
2019-03-31T04:00:56.307Z,99.90
2019-03-31T04:03:30.732Z,99.90
2019-03-31T04:06:09.383Z,99.90
2019-03-31T04:08:36.185Z,99.90
2019-03-31T04:11:14.527Z,99.90
2019-03-31T04:13:41.288Z,99.90
2019-03-31T04:16:07.922Z,99.90
2019-03-31T04:18:34.549Z,99.90
2019-03-31T04:21:01.373Z,99.90
2019-03-31T04:23:28.045Z,99.90
2019-03-31T04:26:00.703Z,99.90
2019-03-31T04:28:30.744Z,99.90
2019-03-31T04:30:59.222Z,99.90
2019-03-31T04:33:25.956Z,99.90
2019-03-31T04:36:00.258Z,99.90
2019-03-31T04:38:26.977Z,99.90
2019-03-31T04:40:53.767Z,99.90
2019-03-31T04:43:21.632Z,99.90
2019-03-31T04:45:48.267Z,99.90
2019-03-31T04:48:14.979Z,99.90
2019-03-31T04:50:42.174Z,99.90
2019-03-31T04:53:08.873Z,99.90
2019-03-31T04:55:35.524Z,99.90
2019-03-31T04:58:05.216Z,99.90
2019-03-31T05:00:31.858Z,99.90
2019-03-31T05:02:58.531Z,99.90
2019-03-31T05:05:25.698Z,99.90
2019-03-31T05:07:52.405Z,99.90
2019-03-31T05:10:19.106Z,99.90
2019-03-31T05:12:45.844Z,99.90
2019-03-31T05:15:12.565Z,99.90
2019-03-31T05:17:39.634Z,99.90
2019-03-31T05:20:06.589Z,99.90
2019-03-31T05:22:33.304Z,99.90
2019-03-31T05:25:00.052Z,99.90
2019-03-31T05:27:26.776Z,99.90
2019-03-31T05:29:53.462Z,99.90
2019-03-31T05:32:20.189Z,99.90
2019-03-31T05:34:46.810Z,99.90
2019-03-31T05:37:13.455Z,99.90
2019-03-31T05:39:40.413Z,99.90
2019-03-31T05:42:07.043Z,99.90
2019-03-31T05:44:33.693Z,99.90
2019-03-31T05:47:00.347Z,99.90
2019-03-31T05:49:27.550Z,99.90
2019-03-31T05:52:24.963Z,99.90
2019-03-31T05:54:49.471Z,99.90
2019-03-31T05:57:16.118Z,99.90
2019-03-31T05:59:43.271Z,99.90
2019-03-31T06:02:09.942Z,99.90
2019-03-31T06:04:36.741Z,99.90
2019-03-31T06:07:04.141Z,99.90
2019-03-31T06:09:30.865Z,99.90
2019-03-31T06:11:57.729Z,99.90
2019-03-31T06:14:24.372Z,99.90
2019-03-31T06:16:51.483Z,99.90
2019-03-31T06:19:18.125Z,99.90
2019-03-31T06:21:44.793Z,99.90
2019-03-31T06:24:11.536Z,99.90
2019-03-31T06:26:38.671Z,99.90
2019-03-31T06:29:05.413Z,99.90
2019-03-31T06:31:35.342Z,99.90
2019-03-31T06:34:02.070Z,99.90
2019-03-31T06:36:28.741Z,99.90
2019-03-31T06:38:55.396Z,99.90
2019-03-31T06:41:22.031Z,99.90
2019-03-31T06:43:48.813Z,99.90
2019-03-31T06:46:15.941Z,99.90
2019-03-31T06:48:42.572Z,99.90
2019-03-31T06:51:09.258Z,99.90
2019-03-31T06:53:36.701Z,99.90
2019-03-31T06:56:03.461Z,99.90
2019-03-31T06:58:31.726Z,99.90
2019-03-31T07:00:58.376Z,99.90
2019-03-31T07:03:25.059Z,99.90
2019-03-31T07:05:51.777Z,99.90
2019-03-31T07:08:18.481Z,99.90
2019-03-31T07:10:47.090Z,99.90
2019-03-31T07:13:15.220Z,99.90
2019-03-31T07:15:41.812Z,99.90
2019-03-31T07:18:08.522Z,99.90
2019-03-31T07:20:35.173Z,99.90
2019-03-31T07:23:01.927Z,99.90
2019-03-31T07:25:28.558Z,99.90
2019-03-31T07:27:55.402Z,99.90
2019-03-31T07:30:22.853Z,99.90
2019-03-31T07:32:49.600Z,99.90
2019-03-31T07:35:18.605Z,99.90
2019-03-31T07:37:47.608Z,99.90
2019-03-31T07:40:15.593Z,99.90
2019-03-31T07:42:42.386Z,99.90
2019-03-31T07:45:10.395Z,99.90
2019-03-31T07:47:38.074Z,99.90
2019-03-31T07:50:05.494Z,99.90
2019-03-31T07:52:32.146Z,99.90
2019-03-31T07:54:58.886Z,99.90
2019-03-31T07:57:25.522Z,99.90
2019-03-31T07:59:58.438Z,99.90
2019-03-31T08:02:25.627Z,99.90
2019-03-31T08:04:52.497Z,99.90
2019-03-31T08:07:22.483Z,99.90
2019-03-31T08:09:52.228Z,99.90
2019-03-31T08:12:19.026Z,99.90
2019-03-31T08:14:45.840Z,99.90
2019-03-31T08:17:12.656Z,99.90
2019-03-31T08:19:39.891Z,99.90
2019-03-31T08:22:06.634Z,99.90
2019-03-31T08:24:43.311Z,99.90
2019-03-31T08:27:09.995Z,99.90
2019-03-31T08:29:36.648Z,99.90
2019-03-31T08:32:06.556Z,99.90
2019-03-31T08:34:33.777Z,99.90
2019-03-31T08:37:00.506Z,99.90
2019-03-31T08:39:28.132Z,99.90
2019-03-31T08:41:54.808Z,99.90
2019-03-31T08:44:21.476Z,99.90
2019-03-31T08:46:48.459Z,99.90
2019-03-31T08:49:15.199Z,99.90
2019-03-31T08:51:42.197Z,99.90
2019-03-31T08:54:11.664Z,99.90
2019-03-31T08:56:38.793Z,99.90
2019-03-31T08:59:08.753Z,99.90
2019-03-31T09:01:44.139Z,99.90
2019-03-31T09:04:08.402Z,99.90
2019-03-31T09:06:36.142Z,99.90
2019-03-31T09:09:03.202Z,99.90
2019-03-31T09:11:29.868Z,99.90
2019-03-31T09:13:57.696Z,99.90
2019-03-31T09:16:24.320Z,99.90
2019-03-31T09:18:50.940Z,99.90
2019-03-31T09:21:17.659Z,99.90
2019-03-31T09:23:45.161Z,99.90
2019-03-31T09:26:11.869Z,99.90
2019-03-31T09:28:38.564Z,99.90
2019-03-31T09:31:05.460Z,99.90
2019-03-31T09:33:32.129Z,99.90
2019-03-31T09:35:58.796Z,99.90
2019-03-31T09:38:25.622Z,99.90
2019-03-31T09:40:52.243Z,99.90
2019-03-31T09:43:19.055Z,99.90
2019-03-31T09:45:45.665Z,99.90
2019-03-31T09:48:12.443Z,99.90
2019-03-31T09:50:39.101Z,99.90
2019-03-31T09:53:05.805Z,99.90
2019-03-31T09:55:32.622Z,99.90
2019-03-31T09:57:59.761Z,99.90
2019-03-31T10:00:53.475Z,99.90
2019-03-31T10:03:26.465Z,99.90
2019-03-31T10:05:53.515Z,99.90
2019-03-31T10:08:22.284Z,99.90
2019-03-31T10:10:48.627Z,99.90
2019-03-31T10:13:15.421Z,99.90
2019-03-31T10:15:42.211Z,99.90
2019-03-31T10:18:08.864Z,99.90
2019-03-31T10:20:35.450Z,99.90
2019-03-31T10:23:02.146Z,99.90
2019-03-31T10:25:29.387Z,99.90
2019-03-31T10:27:56.463Z,99.90
2019-03-31T10:30:37.237Z,99.90
2019-03-31T10:33:03.976Z,99.90
2019-03-31T10:35:30.903Z,99.90
2019-03-31T10:37:57.621Z,99.90
2019-03-31T10:40:24.264Z,99.90
2019-03-31T10:42:51.143Z,99.90
2019-03-31T10:45:17.897Z,99.90
2019-03-31T10:47:44.587Z,99.90
2019-03-31T10:50:11.363Z,99.90
2019-03-31T10:53:01.323Z,99.90
2019-03-31T10:55:28.158Z,99.90
2019-03-31T10:57:56.985Z,99.90
2019-03-31T11:00:36.508Z,99.90
2019-03-31T11:03:03.640Z,99.90
2019-03-31T11:05:30.295Z,99.90
2019-03-31T11:07:57.181Z,99.90
2019-03-31T11:10:23.960Z,99.90
2019-03-31T11:12:50.982Z,99.90
2019-03-31T11:15:17.591Z,99.90
2019-03-31T11:17:44.190Z,99.90
2019-03-31T11:20:10.942Z,99.90
2019-03-31T11:22:41.877Z,99.90
2019-03-31T11:25:20.334Z,99.90
2019-03-31T11:27:37.665Z,99.90
2019-03-31T11:30:04.891Z,99.90
2019-03-31T11:32:34.793Z,99.90
2019-03-31T11:35:01.464Z,99.90
2019-03-31T11:37:28.148Z,99.90
2019-03-31T11:39:54.740Z,99.90
2019-03-31T11:42:21.436Z,99.90
2019-03-31T11:44:48.144Z,99.90
2019-03-31T11:47:14.797Z,99.90
2019-03-31T11:49:58.823Z,99.90
2019-03-31T11:52:31.827Z,99.90
2019-03-31T11:54:58.523Z,99.90
2019-03-31T11:57:25.631Z,99.70
2019-03-31T11:59:52.572Z,99.90
2019-03-31T12:02:27.067Z,99.90
2019-03-31T12:04:47.815Z,99.90
2019-03-31T12:07:27.381Z,99.90
2019-03-31T12:09:43.851Z,99.90
2019-03-31T12:12:10.653Z,99.90
2019-03-31T12:14:37.440Z,99.80
2019-03-31T12:17:08.325Z,99.80
2019-03-31T12:19:35.054Z,99.90
2019-03-31T12:22:05.163Z,99.20
2019-03-31T12:24:31.902Z,99.70
2019-03-31T12:26:59.069Z,99.60
2019-03-31T12:29:26.249Z,99.60
2019-03-31T12:31:53.003Z,98.90
2019-03-31T12:34:19.689Z,98.90
2019-03-31T12:36:46.379Z,99.30
2019-03-31T12:39:13.071Z,99.60
2019-03-31T12:41:39.731Z,99.60
2019-03-31T12:44:06.833Z,99.30
2019-03-31T12:46:36.616Z,98.90
2019-03-31T12:49:03.253Z,98.80
2019-03-31T12:51:29.966Z,98.70
2019-03-31T12:53:56.977Z,98.60
2019-03-31T12:56:24.025Z,98.70
2019-03-31T12:58:50.748Z,98.60
2019-03-31T13:01:18.110Z,98.10
2019-03-31T13:03:44.800Z,98.20
2019-03-31T13:06:13.543Z,98.60
2019-03-31T13:08:40.175Z,98.70
2019-03-31T13:11:07.311Z,98.90
2019-03-31T13:13:34.538Z,98.70
2019-03-31T13:16:11.562Z,97.90
2019-03-31T13:18:38.523Z,97.70
2019-03-31T13:21:05.605Z,98.30
2019-03-31T13:23:33.004Z,97.90
2019-03-31T13:26:00.304Z,97.90
2019-03-31T13:28:27.166Z,98.20
2019-03-31T13:30:53.985Z,98.50
2019-03-31T13:33:21.159Z,97.90
2019-03-31T13:35:47.858Z,97.60
2019-03-31T13:38:16.209Z,97.60
2019-03-31T13:40:43.148Z,97.60
2019-03-31T13:43:09.852Z,96.90
2019-03-31T13:45:37.385Z,96.90
2019-03-31T13:48:04.136Z,97.20
2019-03-31T13:50:30.804Z,97.00
2019-03-31T13:52:57.592Z,97.20
2019-03-31T13:55:24.216Z,97.50
2019-03-31T13:57:52.660Z,97.30
2019-03-31T14:00:35.430Z,97.40
2019-03-31T14:03:02.339Z,97.70
2019-03-31T14:05:29.086Z,97.10
2019-03-31T14:07:57.885Z,97.50
2019-03-31T14:10:24.877Z,97.60
2019-03-31T14:12:51.658Z,97.30
2019-03-31T14:15:19.661Z,97.60
2019-03-31T14:17:46.719Z,97.60
2019-03-31T14:20:13.731Z,96.70
2019-03-31T14:22:40.844Z,96.70
2019-03-31T14:25:07.782Z,96.60
2019-03-31T14:27:34.477Z,96.70
2019-03-31T14:30:01.261Z,96.70
2019-03-31T14:32:28.106Z,96.80
2019-03-31T14:34:56.264Z,96.60
2019-03-31T14:37:23.226Z,96.70
2019-03-31T14:39:49.955Z,96.80
2019-03-31T14:42:20.632Z,97.10
2019-03-31T14:44:47.280Z,96.90
2019-03-31T14:47:14.872Z,97.00
2019-03-31T14:49:41.665Z,97.00
2019-03-31T14:52:08.491Z,97.30
2019-03-31T14:54:35.152Z,96.60
2019-03-31T14:57:02.760Z,96.20
2019-03-31T14:59:29.367Z,96.80
2019-03-31T15:01:56.438Z,96.60
2019-03-31T15:04:29.774Z,96.40
2019-03-31T15:06:56.489Z,96.20
2019-03-31T15:09:23.158Z,96.60
2019-03-31T15:11:50.375Z,96.90
2019-03-31T15:14:17.232Z,96.90
2019-03-31T15:16:44.382Z,96.90
2019-03-31T15:19:11.124Z,96.70
2019-03-31T15:21:43.816Z,96.80
2019-03-31T15:24:07.579Z,96.40
2019-03-31T15:26:37.170Z,97.10
2019-03-31T15:29:04.380Z,96.70
2019-03-31T15:31:36.101Z,97.00
2019-03-31T15:34:01.926Z,96.90
2019-03-31T15:36:29.189Z,97.20
2019-03-31T15:39:08.314Z,96.90
2019-03-31T15:41:24.996Z,96.70
2019-03-31T15:43:52.167Z,96.90
2019-03-31T15:46:20.475Z,96.70
2019-03-31T15:48:50.255Z,96.50
2019-03-31T15:51:17.040Z,96.70
2019-03-31T15:53:44.055Z,96.30
2019-03-31T15:56:11.275Z,96.60
2019-03-31T15:58:38.140Z,96.40
2019-03-31T16:01:04.840Z,96.40
2019-03-31T16:03:33.462Z,96.90
2019-03-31T16:06:00.423Z,96.50
2019-03-31T16:08:27.006Z,96.50
2019-03-31T16:10:53.471Z,97.20
2019-03-31T16:13:20.558Z,96.40
2019-03-31T16:15:46.746Z,96.40
2019-03-31T16:18:13.059Z,97.00
2019-03-31T16:21:02.311Z,97.00
2019-03-31T16:23:29.742Z,97.50
2019-03-31T16:25:57.627Z,97.00
2019-03-31T16:28:23.716Z,97.70
2019-03-31T16:30:50.228Z,97.60
2019-03-31T16:33:16.471Z,97.40
2019-03-31T16:35:48.975Z,97.60
2019-03-31T16:38:15.041Z,97.40
2019-03-31T16:40:41.205Z,97.20
2019-03-31T16:43:07.271Z,97.20
2019-03-31T16:45:33.825Z,97.40
2019-03-31T16:47:59.953Z,97.40
2019-03-31T16:50:30.321Z,97.60
2019-03-31T16:52:56.389Z,97.20
2019-03-31T16:55:24.962Z,96.80
2019-03-31T16:57:50.351Z,96.60
2019-03-31T17:00:19.135Z,96.50
2019-03-31T17:02:49.707Z,96.50
2019-03-31T17:05:22.282Z,96.60
2019-03-31T17:07:44.746Z,96.80
2019-03-31T17:10:11.142Z,96.80
2019-03-31T17:12:37.254Z,96.90
2019-03-31T17:15:03.340Z,96.70
2019-03-31T17:17:30.668Z,97.00
2019-03-31T17:19:56.766Z,96.80
2019-03-31T17:22:23.229Z,96.80
2019-03-31T17:24:49.877Z,97.00
2019-03-31T17:27:16.294Z,96.90
2019-03-31T17:29:42.688Z,97.20
2019-03-31T17:32:08.628Z,97.10
2019-03-31T17:34:34.634Z,97.30
2019-03-31T17:37:00.644Z,97.50
2019-03-31T17:39:26.739Z,97.50
2019-03-31T17:41:54.551Z,97.20
2019-03-31T17:44:20.432Z,97.20
2019-03-31T17:46:46.296Z,96.80
2019-03-31T17:49:12.573Z,96.80
2019-03-31T17:51:38.564Z,96.80
2019-03-31T17:54:06.163Z,96.80
2019-03-31T17:56:33.589Z,97.10
2019-03-31T17:58:59.478Z,96.80
2019-03-31T18:01:25.776Z,97.00
2019-03-31T18:03:51.730Z,97.10
2019-03-31T18:06:28.659Z,96.90
2019-03-31T18:08:54.793Z,96.80
2019-03-31T18:11:20.813Z,97.00
2019-03-31T18:13:46.825Z,96.90
2019-03-31T18:16:13.104Z,96.80
2019-03-31T18:18:39.327Z,97.00
2019-03-31T18:21:05.426Z,96.90
2019-03-31T18:23:31.950Z,97.10
2019-03-31T18:26:21.960Z,96.50
2019-03-31T18:28:51.219Z,96.70
2019-03-31T18:31:17.305Z,96.70
2019-03-31T18:33:43.432Z,96.90
2019-03-31T18:36:09.518Z,96.70
2019-03-31T18:38:38.426Z,96.30
2019-03-31T18:41:04.535Z,96.20
2019-03-31T18:43:30.758Z,96.50
2019-03-31T18:46:00.259Z,96.10
2019-03-31T18:48:26.874Z,96.00
2019-03-31T18:50:53.195Z,96.00
2019-03-31T18:53:34.216Z,96.00
2019-03-31T18:56:22.134Z,96.00
2019-03-31T18:59:13.118Z,96.10
2019-03-31T19:02:01.246Z,95.80
2019-03-31T19:04:46.101Z,96.10
2019-03-31T19:07:43.490Z,96.30
2019-03-31T19:10:31.061Z,95.70
2019-03-31T19:13:31.380Z,95.80
2019-03-31T19:16:16.637Z,95.80
2019-03-31T19:18:53.530Z,95.70
2019-03-31T19:21:38.673Z,95.70
2019-03-31T19:24:18.047Z,95.60
2019-03-31T19:27:18.393Z,95.70
2019-03-31T19:30:01.470Z,95.50
2019-03-31T19:32:46.778Z,95.40
2019-03-31T19:35:43.768Z,95.30
2019-03-31T19:38:18.549Z,95.20
2019-03-31T19:41:04.519Z,94.70
2019-03-31T19:43:49.681Z,94.50
2019-03-31T19:46:43.924Z,94.60
2019-03-31T19:49:47.369Z,93.90
2019-03-31T19:52:27.605Z,93.90
2019-03-31T19:55:05.502Z,93.10
2019-03-31T19:57:46.485Z,93.10
2019-03-31T20:00:31.035Z,93.20
2019-03-31T20:03:18.768Z,92.90
2019-03-31T20:06:02.754Z,92.70
2019-03-31T20:08:45.165Z,92.70
2019-03-31T20:11:15.578Z,92.60
2019-03-31T20:14:07.106Z,92.50
2019-03-31T20:16:40.912Z,92.40
2019-03-31T20:19:31.735Z,92.40
2019-03-31T20:22:06.498Z,92.80
2019-03-31T20:25:00.384Z,92.90
2019-03-31T20:27:48.255Z,92.70
2019-03-31T20:30:30.444Z,93.60
2019-03-31T20:33:15.269Z,92.90
2019-03-31T20:35:50.535Z,93.00
2019-03-31T20:38:25.684Z,93.20
2019-03-31T20:41:09.473Z,93.10
2019-03-31T20:44:00.510Z,93.40
2019-03-31T20:46:26.554Z,93.70
2019-03-31T20:48:52.982Z,93.40
2019-03-31T20:51:18.809Z,93.30
2019-03-31T20:53:44.735Z,93.90
2019-03-31T20:56:13.077Z,93.70
2019-03-31T20:58:39.192Z,93.70
2019-03-31T21:01:05.461Z,93.60
2019-03-31T21:03:31.328Z,93.90
2019-03-31T21:05:57.639Z,94.10
2019-03-31T21:08:23.620Z,94.20
2019-03-31T21:10:49.857Z,94.20
2019-03-31T21:13:15.667Z,94.30
2019-03-31T21:15:41.755Z,94.50
2019-03-31T21:18:07.966Z,94.20
2019-03-31T21:20:34.327Z,94.40
2019-03-31T21:23:03.319Z,94.40
2019-03-31T21:25:29.566Z,94.90
2019-03-31T21:27:55.586Z,94.70
2019-03-31T21:30:21.531Z,95.10
2019-03-31T21:32:47.751Z,94.70
2019-03-31T21:35:13.819Z,95.30
2019-03-31T21:37:39.605Z,94.90
2019-03-31T21:40:06.088Z,95.40
2019-03-31T21:42:32.164Z,95.40
2019-03-31T21:44:58.027Z,95.40
2019-03-31T21:47:23.808Z,95.60
2019-03-31T21:49:49.600Z,95.70
2019-03-31T21:52:17.976Z,95.50
2019-03-31T21:54:43.793Z,95.70
2019-03-31T21:57:09.656Z,95.90
2019-03-31T21:59:35.736Z,96.00
2019-03-31T22:02:01.693Z,96.00
2019-03-31T22:04:27.811Z,96.10
2019-03-31T22:06:53.640Z,96.30
2019-03-31T22:09:19.457Z,96.40
2019-03-31T22:11:45.275Z,96.60
2019-03-31T22:14:11.094Z,96.20
2019-03-31T22:16:36.964Z,96.10
2019-03-31T22:19:02.812Z,96.20
2019-03-31T22:21:29.029Z,96.30
2019-03-31T22:23:58.122Z,96.00
2019-03-31T22:26:22.441Z,96.10
2019-03-31T22:28:48.452Z,96.10
2019-03-31T22:31:17.192Z,96.10
2019-03-31T22:33:42.989Z,96.10
2019-03-31T22:36:24.577Z,95.90
2019-03-31T22:38:51.036Z,96.00
2019-03-31T22:41:16.991Z,95.60
2019-03-31T22:43:42.810Z,96.00
2019-03-31T22:46:08.649Z,95.90
2019-03-31T22:48:34.476Z,96.00
2019-03-31T22:51:00.312Z,95.70
2019-03-31T22:53:26.602Z,95.90
2019-03-31T22:55:52.485Z,95.60
2019-03-31T22:58:18.477Z,95.60
2019-03-31T23:00:44.298Z,95.60
2019-03-31T23:03:10.208Z,95.40
2019-03-31T23:05:36.155Z,95.40
2019-03-31T23:08:02.016Z,95.50
2019-03-31T23:10:27.962Z,95.60
2019-03-31T23:12:53.872Z,96.00
2019-03-31T23:15:20.881Z,95.90
2019-03-31T23:17:46.835Z,96.00
2019-03-31T23:20:12.724Z,96.00
2019-03-31T23:22:38.529Z,96.10
2019-03-31T23:25:06.447Z,96.10
2019-03-31T23:27:32.637Z,96.00
2019-03-31T23:29:58.715Z,95.90
2019-03-31T23:32:24.569Z,96.20
2019-03-31T23:34:50.476Z,96.70
2019-03-31T23:37:16.981Z,96.10
2019-03-31T23:39:42.770Z,96.30
2019-03-31T23:42:08.605Z,96.50
2019-03-31T23:44:36.660Z,96.30
2019-03-31T23:47:02.509Z,96.40
2019-03-31T23:49:28.311Z,96.60
2019-03-31T23:51:54.597Z,97.10
2019-03-31T23:54:20.712Z,97.10
2019-03-31T23:56:46.608Z,97.10
2019-03-31T23:59:12.434Z,97.20
